Time,TemperatureF,DewpointF,PressureIn,WindDirection,WindDirectionDegrees,WindSpeedMPH,WindSpeedGustMPH,Humidity,HourlyPrecipIn,Conditions,Clouds,dailyrainin,SolarRadiationWatts/m^2,SoftwareType,DateUTC
2013-10-02 00:03:00,56.0,27.0,-100.00,NW,317,1.0,11.0,33,0.00,,,0.00,0.000000,,2013-10-02 06:03:00,
2013-10-02 00:12:00,56.0,27.0,-100.00,NW,317,1.0,11.0,33,0.00,,,0.00,0.000000,,2013-10-02 06:12:00,
2013-10-02 00:21:00,56.0,27.0,-100.00,NW,317,1.0,11.0,33,0.00,,,0.00,0.000000,,2013-10-02 06:21:00,
2013-10-02 00:32:00,56.0,27.0,-100.00,NW,317,1.0,11.0,33,0.00,,,0.00,0.000000,,2013-10-02 06:32:00,
2013-10-02 00:52:00,59.0,23.0,-100.00,South,173,4.0,11.0,25,0.00,,,0.00,0.000000,,2013-10-02 06:52:00,
2013-10-02 01:01:00,59.0,23.0,-100.00,South,173,4.0,11.0,25,0.00,,,0.00,0.000000,,2013-10-02 07:01:00,
2013-10-02 01:11:00,59.0,23.0,-100.00,South,173,4.0,11.0,25,0.00,,,0.00,0.000000,,2013-10-02 07:11:00,
2013-10-02 01:22:00,59.0,23.0,-100.00,South,173,4.0,11.0,25,0.00,,,0.00,0.000000,,2013-10-02 07:22:00,
2013-10-02 01:31:00,59.0,23.0,-100.00,South,173,4.0,11.0,25,0.00,,,0.00,0.000000,,2013-10-02 07:31:00,
2013-10-02 01:52:00,56.0,27.0,-100.00,ESE,113,2.0,5.0,33,0.00,,,0.00,0.000000,,2013-10-02 07:52:00,
2013-10-02 02:03:00,56.0,27.0,-100.00,ESE,113,2.0,5.0,33,0.00,,,0.00,0.000000,,2013-10-02 08:03:00,
2013-10-02 02:11:00,56.0,27.0,-100.00,ESE,113,2.0,5.0,33,0.00,,,0.00,0.000000,,2013-10-02 08:11:00,
2013-10-02 02:22:00,56.0,27.0,-100.00,ESE,113,2.0,5.0,33,0.00,,,0.00,0.000000,,2013-10-02 08:22:00,
2013-10-02 02:32:00,56.0,27.0,-100.00,ESE,113,2.0,5.0,33,0.00,,,0.00,0.000000,,2013-10-02 08:32:00,
2013-10-02 02:52:00,56.0,27.0,-100.00,ESE,103,3.0,4.0,33,0.00,,,0.00,0.000000,,2013-10-02 08:52:00,
2013-10-02 03:01:00,56.0,27.0,-100.00,ESE,103,3.0,4.0,33,0.00,,,0.00,0.000000,,2013-10-02 09:01:00,
2013-10-02 03:11:00,56.0,27.0,-100.00,ESE,103,3.0,4.0,33,0.00,,,0.00,0.000000,,2013-10-02 09:11:00,
2013-10-02 03:21:00,56.0,27.0,-100.00,ESE,103,3.0,4.0,33,0.00,,,0.00,0.000000,,2013-10-02 09:21:00,
2013-10-02 03:33:00,56.0,27.0,-100.00,ESE,103,3.0,4.0,33,0.00,,,0.00,0.000000,,2013-10-02 09:33:00,
2013-10-02 03:54:00,55.0,28.0,-100.00,East,92,3.0,5.0,35,0.00,,,0.00,0.000000,,2013-10-02 09:54:00,
2013-10-02 04:03:00,55.0,28.0,-100.00,East,92,3.0,5.0,35,0.00,,,0.00,0.000000,,2013-10-02 10:03:00,
2013-10-02 04:12:00,55.0,28.0,-100.00,East,92,3.0,5.0,35,0.00,,,0.00,0.000000,,2013-10-02 10:12:00,
2013-10-02 04:23:00,55.0,28.0,-100.00,East,92,3.0,5.0,35,0.00,,,0.00,0.000000,,2013-10-02 10:23:00,
2013-10-02 04:32:00,55.0,28.0,-100.00,East,92,3.0,5.0,35,0.00,,,0.00,0.000000,,2013-10-02 10:32:00,
2013-10-02 05:12:00,50.0,29.0,-100.00,ENE,66,6.0,8.0,44,0.00,,,0.00,0.000000,,2013-10-02 11:12:00,
2013-10-02 05:21:00,50.0,29.0,-100.00,ENE,66,6.0,8.0,44,0.00,,,0.00,0.000000,,2013-10-02 11:21:00,
2013-10-02 05:33:00,50.0,29.0,-100.00,ENE,66,6.0,8.0,44,0.00,,,0.00,0.000000,,2013-10-02 11:33:00,
2013-10-02 05:52:00,50.0,28.0,-100.00,ENE,62,5.0,10.0,42,0.00,,,0.00,0.000000,,2013-10-02 11:52:00,
2013-10-02 06:02:00,50.0,28.0,-100.00,ENE,62,5.0,10.0,42,0.00,,,0.00,0.000000,,2013-10-02 12:02:00,
2013-10-02 06:12:00,50.0,28.0,-100.00,ENE,62,5.0,10.0,42,0.00,,,0.00,0.000000,,2013-10-02 12:12:00,
2013-10-02 06:21:00,50.0,28.0,-100.00,ENE,62,5.0,10.0,42,0.00,,,0.00,0.000000,,2013-10-02 12:21:00,
2013-10-02 06:32:00,50.0,28.0,-100.00,ENE,62,5.0,10.0,42,0.00,,,0.00,0.000000,,2013-10-02 12:32:00,
2013-10-02 06:52:00,51.0,27.0,-100.00,ENE,78,4.0,8.0,39,0.00,,,0.00,0.000000,,2013-10-02 12:52:00,
2013-10-02 07:02:00,51.0,27.0,-100.00,ENE,78,4.0,8.0,39,0.00,,,0.00,0.000000,,2013-10-02 13:02:00,
2013-10-02 07:11:00,51.0,27.0,-100.00,ENE,78,4.0,8.0,39,0.00,,,0.00,0.000000,,2013-10-02 13:11:00,
2013-10-02 07:22:00,51.0,27.0,-100.00,ENE,78,4.0,8.0,39,0.00,,,0.00,0.000000,,2013-10-02 13:22:00,
2013-10-02 07:31:00,51.0,27.0,-100.00,ENE,78,4.0,8.0,39,0.00,,,0.00,0.000000,,2013-10-02 13:31:00,
2013-10-02 07:52:00,51.0,28.0,-100.00,ENE,75,6.0,7.0,40,0.00,,,0.00,11.000000,,2013-10-02 13:52:00,
2013-10-02 08:02:00,51.0,28.0,-100.00,ENE,75,6.0,7.0,40,0.00,,,0.00,11.000000,,2013-10-02 14:02:00,
2013-10-02 08:11:00,51.0,28.0,-100.00,ENE,75,6.0,7.0,40,0.00,,,0.00,11.000000,,2013-10-02 14:11:00,
2013-10-02 08:21:00,51.0,28.0,-100.00,ENE,75,6.0,7.0,40,0.00,,,0.00,11.000000,,2013-10-02 14:21:00,
2013-10-02 08:32:00,51.0,28.0,-100.00,ENE,75,6.0,7.0,40,0.00,,,0.00,11.000000,,2013-10-02 14:32:00,
2013-10-02 08:52:00,52.0,31.0,-100.00,ENE,71,4.0,7.0,44,0.00,,,0.00,130.000000,,2013-10-02 14:52:00,
2013-10-02 09:01:00,52.0,31.0,-100.00,ENE,71,4.0,7.0,44,0.00,,,0.00,130.000000,,2013-10-02 15:01:00,
2013-10-02 09:11:00,52.0,31.0,-100.00,ENE,71,4.0,7.0,44,0.00,,,0.00,130.000000,,2013-10-02 15:11:00,
2013-10-02 09:22:00,52.0,31.0,-100.00,ENE,71,4.0,7.0,44,0.00,,,0.00,130.000000,,2013-10-02 15:22:00,
2013-10-02 09:33:00,52.0,31.0,-100.00,ENE,71,4.0,7.0,44,0.00,,,0.00,130.000000,,2013-10-02 15:33:00,
2013-10-02 09:54:00,57.0,31.0,-100.00,ENE,65,6.0,8.0,37,0.00,,,0.00,418.000000,,2013-10-02 15:54:00,
2013-10-02 10:03:00,57.0,31.0,-100.00,ENE,65,6.0,8.0,37,0.00,,,0.00,418.000000,,2013-10-02 16:03:00,
2013-10-02 10:12:00,57.0,31.0,-100.00,ENE,65,6.0,8.0,37,0.00,,,0.00,418.000000,,2013-10-02 16:12:00,
2013-10-02 10:23:00,57.0,31.0,-100.00,ENE,65,6.0,8.0,37,0.00,,,0.00,418.000000,,2013-10-02 16:23:00,
2013-10-02 10:32:00,57.0,31.0,-100.00,ENE,65,6.0,8.0,37,0.00,,,0.00,418.000000,,2013-10-02 16:32:00,
2013-10-02 10:52:00,59.0,32.0,-100.00,NE,52,2.0,8.0,36,0.00,,,0.00,447.000000,,2013-10-02 16:52:00,
2013-10-02 11:02:00,59.0,32.0,-100.00,NE,52,2.0,8.0,36,0.00,,,0.00,447.000000,,2013-10-02 17:02:00,
2013-10-02 11:12:00,59.0,32.0,-100.00,NE,52,2.0,8.0,36,0.00,,,0.00,447.000000,,2013-10-02 17:12:00,
2013-10-02 11:23:00,59.0,32.0,-100.00,NE,52,2.0,8.0,36,0.00,,,0.00,447.000000,,2013-10-02 17:23:00,
2013-10-02 11:33:00,59.0,32.0,-100.00,NE,52,2.0,8.0,36,0.00,,,0.00,447.000000,,2013-10-02 17:33:00,
2013-10-02 11:52:00,65.0,29.0,-100.00,SSE,165,4.0,7.0,26,0.00,,,0.00,712.000000,,2013-10-02 17:52:00,
2013-10-02 12:02:00,65.0,29.0,-100.00,SSE,165,4.0,7.0,26,0.00,,,0.00,712.000000,,2013-10-02 18:02:00,
2013-10-02 12:12:00,65.0,29.0,-100.00,SSE,165,4.0,7.0,26,0.00,,,0.00,712.000000,,2013-10-02 18:12:00,
2013-10-02 12:21:00,65.0,29.0,-100.00,SSE,165,4.0,7.0,26,0.00,,,0.00,712.000000,,2013-10-02 18:21:00,
2013-10-02 12:32:00,65.0,29.0,-100.00,SSE,165,4.0,7.0,26,0.00,,,0.00,712.000000,,2013-10-02 18:32:00,
2013-10-02 12:52:00,67.0,28.0,-100.00,South,191,7.0,16.0,23,0.00,,,0.00,801.000000,,2013-10-02 18:52:00,
2013-10-02 13:02:00,67.0,28.0,-100.00,South,191,7.0,16.0,23,0.00,,,0.00,801.000000,,2013-10-02 19:02:00,
2013-10-02 13:11:00,67.0,28.0,-100.00,South,191,7.0,16.0,23,0.00,,,0.00,801.000000,,2013-10-02 19:11:00,
2013-10-02 13:21:00,67.0,28.0,-100.00,South,191,7.0,16.0,23,0.00,,,0.00,801.000000,,2013-10-02 19:21:00,
2013-10-02 13:31:00,67.0,28.0,-100.00,South,191,7.0,16.0,23,0.00,,,0.00,801.000000,,2013-10-02 19:31:00,
2013-10-02 13:52:00,67.0,27.0,-100.00,WSW,247,9.0,20.0,22,0.00,,,0.00,801.000000,,2013-10-02 19:52:00,
2013-10-02 14:02:00,67.0,27.0,-100.00,WSW,247,9.0,20.0,22,0.00,,,0.00,801.000000,,2013-10-02 20:02:00,
2013-10-02 14:11:00,67.0,27.0,-100.00,WSW,247,9.0,20.0,22,0.00,,,0.00,801.000000,,2013-10-02 20:11:00,
2013-10-02 14:22:00,67.0,27.0,-100.00,WSW,247,9.0,20.0,22,0.00,,,0.00,801.000000,,2013-10-02 20:22:00,
2013-10-02 14:32:00,67.0,27.0,-100.00,WSW,247,9.0,20.0,22,0.00,,,0.00,801.000000,,2013-10-02 20:32:00,
2013-10-02 14:34:00,69.0,27.0,-100.00,WSW,241,7.0,18.0,21,0.00,,,0.00,764.000000,,2013-10-02 20:34:00,
2013-10-02 14:52:00,69.0,27.0,-100.00,WSW,241,7.0,18.0,21,0.00,,,0.00,764.000000,,2013-10-02 20:52:00,
2013-10-02 15:01:00,69.0,27.0,-100.00,WSW,241,7.0,18.0,21,0.00,,,0.00,764.000000,,2013-10-02 21:01:00,
2013-10-02 15:11:00,69.0,27.0,-100.00,WSW,241,7.0,18.0,21,0.00,,,0.00,764.000000,,2013-10-02 21:11:00,
2013-10-02 15:22:00,69.0,27.0,-100.00,WSW,241,7.0,18.0,21,0.00,,,0.00,764.000000,,2013-10-02 21:22:00,
2013-10-02 15:55:00,68.0,27.0,-100.00,WSW,248,7.0,21.0,21,0.00,,,0.00,641.000000,,2013-10-02 21:55:00,
2013-10-02 16:04:00,68.0,27.0,-100.00,WSW,248,7.0,21.0,21,0.00,,,0.00,641.000000,,2013-10-02 22:04:00,
2013-10-02 16:13:00,68.0,27.0,-100.00,WSW,248,7.0,21.0,21,0.00,,,0.00,641.000000,,2013-10-02 22:13:00,
2013-10-02 16:23:00,68.0,27.0,-100.00,WSW,248,7.0,21.0,21,0.00,,,0.00,641.000000,,2013-10-02 22:23:00,
2013-10-02 16:33:00,68.0,27.0,-100.00,WSW,248,7.0,21.0,21,0.00,,,0.00,641.000000,,2013-10-02 22:33:00,
2013-10-02 16:53:00,69.0,27.0,-100.00,WSW,240,10.0,16.0,21,0.00,,,0.00,492.000000,,2013-10-02 22:53:00,
2013-10-02 17:03:00,69.0,27.0,-100.00,WSW,240,10.0,16.0,21,0.00,,,0.00,492.000000,,2013-10-02 23:03:00,
2013-10-02 17:12:00,69.0,27.0,-100.00,WSW,240,10.0,16.0,21,0.00,,,0.00,492.000000,,2013-10-02 23:12:00,
2013-10-02 17:22:00,69.0,27.0,-100.00,WSW,240,10.0,16.0,21,0.00,,,0.00,492.000000,,2013-10-02 23:22:00,
2013-10-02 17:33:00,69.0,27.0,-100.00,WSW,240,10.0,16.0,21,0.00,,,0.00,492.000000,,2013-10-02 23:33:00,
2013-10-02 17:52:00,68.0,28.0,-100.00,WSW,240,7.0,18.0,22,0.00,,,0.00,350.000000,,2013-10-02 23:52:00,
2013-10-02 18:02:00,68.0,28.0,-100.00,WSW,240,7.0,18.0,22,0.00,,,0.00,350.000000,,2013-10-03 00:02:00,
2013-10-02 18:12:00,68.0,28.0,-100.00,WSW,240,7.0,18.0,22,0.00,,,0.00,350.000000,,2013-10-03 00:12:00,
2013-10-02 18:22:00,68.0,28.0,-100.00,WSW,240,7.0,18.0,22,0.00,,,0.00,350.000000,,2013-10-03 00:22:00,
2013-10-02 18:32:00,68.0,28.0,-100.00,WSW,240,7.0,18.0,22,0.00,,,0.00,350.000000,,2013-10-03 00:32:00,
2013-10-02 18:52:00,66.0,28.0,-100.00,West,260,6.0,12.0,24,0.00,,,0.00,133.000000,,2013-10-03 00:52:00,
2013-10-02 19:02:00,66.0,28.0,-100.00,West,260,6.0,12.0,24,0.00,,,0.00,133.000000,,2013-10-03 01:02:00,
2013-10-02 19:11:00,66.0,28.0,-100.00,West,260,6.0,12.0,24,0.00,,,0.00,133.000000,,2013-10-03 01:11:00,
2013-10-02 19:22:00,66.0,28.0,-100.00,West,260,6.0,12.0,24,0.00,,,0.00,133.000000,,2013-10-03 01:22:00,
2013-10-02 19:32:00,66.0,28.0,-100.00,West,260,6.0,12.0,24,0.00,,,0.00,133.000000,,2013-10-03 01:32:00,
2013-10-02 19:52:00,63.0,29.0,-100.00,WSW,237,8.0,14.0,27,0.00,,,0.00,6.000000,,2013-10-03 01:52:00,
2013-10-02 20:01:00,63.0,29.0,-100.00,WSW,237,8.0,14.0,27,0.00,,,0.00,6.000000,,2013-10-03 02:01:00,
2013-10-02 20:11:00,63.0,29.0,-100.00,WSW,237,8.0,14.0,27,0.00,,,0.00,6.000000,,2013-10-03 02:11:00,
2013-10-02 20:22:00,63.0,29.0,-100.00,WSW,237,8.0,14.0,27,0.00,,,0.00,6.000000,,2013-10-03 02:22:00,
2013-10-02 20:32:00,63.0,29.0,-100.00,WSW,237,8.0,14.0,27,0.00,,,0.00,6.000000,,2013-10-03 02:32:00,
2013-10-02 20:34:00,61.0,26.0,-100.00,South,188,6.0,18.0,26,0.00,,,0.00,0.000000,,2013-10-03 02:34:00,
2013-10-02 21:11:00,61.0,26.0,-100.00,South,188,6.0,18.0,26,0.00,,,0.00,0.000000,,2013-10-03 03:11:00,
2013-10-02 21:22:00,61.0,26.0,-100.00,South,188,6.0,18.0,26,0.00,,,0.00,0.000000,,2013-10-03 03:22:00,
2013-10-02 21:34:00,60.0,25.0,-100.00,South,191,5.0,13.0,26,0.00,,,0.00,0.000000,,2013-10-03 03:34:00,
2013-10-02 22:13:00,60.0,25.0,-100.00,South,191,5.0,13.0,26,0.00,,,0.00,0.000000,,2013-10-03 04:13:00,
2013-10-02 22:24:00,60.0,25.0,-100.00,South,191,5.0,13.0,26,0.00,,,0.00,0.000000,,2013-10-03 04:24:00,
2013-10-02 22:53:00,59.0,24.0,-100.00,SSW,210,3.0,16.0,26,0.00,,,0.00,0.000000,,2013-10-03 04:53:00,
2013-10-02 23:04:00,59.0,24.0,-100.00,SSW,210,3.0,16.0,26,0.00,,,0.00,0.000000,,2013-10-03 05:04:00,
2013-10-02 23:13:00,59.0,24.0,-100.00,SSW,210,3.0,16.0,26,0.00,,,0.00,0.000000,,2013-10-03 05:13:00,
2013-10-02 23:23:00,59.0,24.0,-100.00,SSW,210,3.0,16.0,26,0.00,,,0.00,0.000000,,2013-10-03 05:23:00,
2013-10-02 23:33:00,59.0,24.0,-100.00,SSW,210,3.0,16.0,26,0.00,,,0.00,0.000000,,2013-10-03 05:33:00,
2013-10-02 23:52:00,59.0,23.0,-100.00,SSW,197,5.0,12.0,25,0.00,,,0.00,0.000000,,2013-10-03 05:52:00,